Terminal Aerodrome Forecast
Issued by NWS St Louis, MO

Home | Current Version | Previous Version | Text Only | Print | Product List | Glossary On
Versions: 1 2 3 4 5 6 7 8 9 10 11 12 13 14 15 16 17 18 19 20 21 22
000
FTUS43 KLSX 302322
TAFCOU
TAF
KCOU 302322Z 3100/3124 VRB04KT P6SM SKC
     FM310800 12004KT 3SM BR SCT005
      TEMPO 3108/3112 1SM BR BKN005
     FM311400 16007KT 6SM BR SCT025
     FM311600 18008KT P6SM SCT040=

USA.gov is the U.S. government's official web portal to all federal, state and local government web resources and services.